Terminal Aerodrome Forecast
Issued by NWS

Home | Current Version | Previous Version | Text Only | Print | Product List | Glossary On
Versions: 1 2 3 4 5 6 7 8 9 10 11 12 13
026
FTUS44 KCRP 111727
TAFALI
TAF
KALI 111727Z 1118/1218 19014G20KT P6SM SKC
     FM120100 16008KT P6SM SKC
     FM120700 18004KT 4SM BR SCT007
      TEMPO 1210/1214 2SM BR BKN005
     FM121500 19008KT P6SM SCT250=

USA.gov is the U.S. government's official web portal to all federal, state and local government web resources and services.